createdAt,value
2023-05-03T00:00:41.619Z,7.69
2023-05-03T00:03:14.079Z,7.67
2023-05-03T00:05:45.094Z,7.65
2023-05-03T00:08:18.348Z,7.62
2023-05-03T00:10:51.914Z,7.60
2023-05-03T00:13:22.056Z,7.58
2023-05-03T00:15:50.828Z,7.56
2023-05-03T00:18:22.428Z,7.53
2023-05-03T00:20:53.969Z,7.51
2023-05-03T00:23:24.330Z,7.49
2023-05-03T00:25:54.532Z,7.45
2023-05-03T00:28:26.735Z,7.41
2023-05-03T00:30:58.404Z,7.39
2023-05-03T00:33:29.984Z,7.37
2023-05-03T00:35:59.861Z,7.34
2023-05-03T00:38:31.879Z,7.32
2023-05-03T00:41:02.174Z,7.29
2023-05-03T00:43:32.633Z,7.27
2023-05-03T00:46:16.133Z,7.24
2023-05-03T00:48:49.699Z,7.20
2023-05-03T00:51:20.383Z,7.16
2023-05-03T00:53:51.847Z,7.10
2023-05-03T00:56:25.662Z,7.03
2023-05-03T00:58:55.976Z,6.96
2023-05-03T01:01:25.619Z,6.87
2023-05-03T01:03:55.465Z,6.77
2023-05-03T01:06:28.123Z,6.70
2023-05-03T01:09:01.299Z,6.64
2023-05-03T01:11:38.698Z,6.57
2023-05-03T01:14:16.268Z,6.51
2023-05-03T01:16:50.399Z,6.47
2023-05-03T01:19:32.905Z,6.46
2023-05-03T01:22:16.584Z,6.48
2023-05-03T01:24:48.612Z,6.48
2023-05-03T01:27:17.679Z,6.45
2023-05-03T01:29:49.331Z,6.42
2023-05-03T01:32:24.195Z,6.38
2023-05-03T01:35:02.102Z,6.26
2023-05-03T01:37:32.905Z,6.10
2023-05-03T01:40:07.692Z,6.04
2023-05-03T01:42:41.649Z,5.99
2023-05-03T01:45:12.837Z,5.93
2023-05-03T01:47:47.546Z,5.84
2023-05-03T01:50:19.355Z,5.71
2023-05-03T01:52:52.897Z,5.60
2023-05-03T01:55:22.100Z,5.50
2023-05-03T01:57:50.986Z,5.42
2023-05-03T02:00:22.753Z,5.36
2023-05-03T02:02:52.480Z,5.28
2023-05-03T02:05:22.943Z,5.20
2023-05-03T02:07:53.644Z,5.10
2023-05-03T02:10:24.477Z,5.01
2023-05-03T02:12:53.329Z,4.88
2023-05-03T02:15:23.557Z,4.75
2023-05-03T02:17:54.580Z,4.67
2023-05-03T02:20:23.562Z,4.61
2023-05-03T02:22:52.286Z,4.54
2023-05-03T02:25:22.334Z,4.47
2023-05-03T02:27:52.666Z,4.44
2023-05-03T02:30:21.895Z,4.41
2023-05-03T02:32:50.901Z,4.37
2023-05-03T02:35:22.362Z,4.21
2023-05-03T02:37:52.534Z,4.08
2023-05-03T02:40:24.257Z,4.03
2023-05-03T02:42:56.382Z,3.98
2023-05-03T02:45:28.769Z,3.94
2023-05-03T02:47:59.838Z,3.91
2023-05-03T02:50:30.369Z,3.87
2023-05-03T02:53:00.665Z,3.85
2023-05-03T02:55:31.093Z,3.85
2023-05-03T02:58:02.020Z,3.83
2023-05-03T03:00:33.401Z,3.81
2023-05-03T03:03:02.152Z,3.82
2023-05-03T03:05:33.224Z,3.81
2023-05-03T03:08:02.593Z,3.82
2023-05-03T03:10:33.777Z,3.80
2023-05-03T03:13:05.349Z,3.73
2023-05-03T03:15:38.652Z,3.63
2023-05-03T03:18:22.635Z,3.49
2023-05-03T03:20:53.586Z,3.40
2023-05-03T03:23:23.799Z,3.36
2023-05-03T03:25:55.535Z,3.33
2023-05-03T03:28:27.391Z,3.31
2023-05-03T03:30:58.799Z,3.29
2023-05-03T03:33:28.636Z,3.26
2023-05-03T03:35:59.237Z,3.24
2023-05-03T03:38:34.017Z,3.22
2023-05-03T03:41:05.527Z,3.20
2023-05-03T03:43:36.432Z,3.18
2023-05-03T03:46:06.516Z,3.17
2023-05-03T03:48:37.779Z,3.17
2023-05-03T03:51:10.053Z,3.17
2023-05-03T03:53:41.765Z,3.18
2023-05-03T03:56:10.615Z,3.19
2023-05-03T03:58:42.116Z,3.22
2023-05-03T04:01:13.264Z,3.23
2023-05-03T04:03:46.565Z,3.27
2023-05-03T04:06:15.842Z,3.30
2023-05-03T04:08:47.149Z,3.35
2023-05-03T04:11:16.935Z,3.41
2023-05-03T04:13:52.208Z,3.49
2023-05-03T04:16:22.594Z,3.60
2023-05-03T04:18:52.386Z,3.68
2023-05-03T04:21:23.049Z,3.76
2023-05-03T04:23:52.537Z,3.86
2023-05-03T04:26:31.844Z,3.98
2023-05-03T04:29:16.232Z,4.13
2023-05-03T04:31:46.483Z,4.26
2023-05-03T04:34:19.040Z,4.36
2023-05-03T04:36:51.958Z,4.46
2023-05-03T04:39:22.879Z,4.56
2023-05-03T04:41:56.937Z,4.65
2023-05-03T04:44:26.408Z,4.77
2023-05-03T04:46:57.277Z,4.90
2023-05-03T04:49:29.728Z,5.04
2023-05-03T04:52:01.359Z,5.14
2023-05-03T04:54:32.173Z,5.24
2023-05-03T04:57:02.579Z,5.32
2023-05-03T04:59:33.004Z,5.41
2023-05-03T05:02:03.995Z,5.54
2023-05-03T05:04:33.995Z,5.65
2023-05-03T05:07:02.916Z,5.76
2023-05-03T05:09:33.366Z,5.87
2023-05-03T05:12:05.564Z,6.02
2023-05-03T05:14:38.810Z,6.25
2023-05-03T05:17:09.531Z,6.43
2023-05-03T05:19:40.641Z,6.67
2023-05-03T05:22:10.274Z,6.99
2023-05-03T05:24:54.536Z,7.17
2023-05-03T05:27:27.061Z,7.35
2023-05-03T05:29:59.205Z,7.42
2023-05-03T05:32:28.252Z,7.49
2023-05-03T05:34:59.467Z,7.63
2023-05-03T05:37:30.524Z,7.78
2023-05-03T05:40:07.355Z,7.94
2023-05-03T05:42:40.306Z,8.11
2023-05-03T05:45:14.883Z,8.27
2023-05-03T05:47:48.251Z,8.58
2023-05-03T05:50:19.370Z,8.85
2023-05-03T05:52:54.081Z,9.12
2023-05-03T05:55:25.377Z,9.36
2023-05-03T05:57:56.922Z,9.54
2023-05-03T06:00:28.983Z,9.61
2023-05-03T06:03:00.231Z,9.70
2023-05-03T06:05:33.314Z,9.89
2023-05-03T06:08:06.599Z,10.10
2023-05-03T06:10:36.846Z,10.07
2023-05-03T06:13:12.480Z,10.14
2023-05-03T06:15:42.442Z,10.25
2023-05-03T06:18:12.146Z,10.37
2023-05-03T06:20:42.322Z,10.59
2023-05-03T06:23:11.468Z,10.68
2023-05-03T06:25:42.128Z,10.86
2023-05-03T06:28:14.312Z,11.12
2023-05-03T06:31:12.110Z,11.20
2023-05-03T06:33:43.426Z,11.24
2023-05-03T06:36:12.912Z,11.35
2023-05-03T06:38:44.468Z,11.47
2023-05-03T06:41:13.444Z,11.46
2023-05-03T06:43:45.918Z,11.48
2023-05-03T06:46:20.156Z,11.61
2023-05-03T06:48:53.620Z,11.63
2023-05-03T06:51:27.978Z,11.62
2023-05-03T06:54:21.751Z,11.75
2023-05-03T06:56:52.191Z,11.88
2023-05-03T06:59:21.174Z,12.01
2023-05-03T07:01:52.367Z,12.11
2023-05-03T07:04:21.835Z,12.36
2023-05-03T07:06:56.322Z,12.58
2023-05-03T07:11:58.573Z,13.01
2023-05-03T07:14:27.800Z,13.20
2023-05-03T07:16:57.114Z,13.35
2023-05-03T07:19:26.792Z,14.08
2023-05-03T07:21:58.794Z,16.57
2023-05-03T07:24:28.083Z,18.88
2023-05-03T07:26:59.043Z,20.53
2023-05-03T07:29:29.552Z,22.04
2023-05-03T07:32:00.722Z,22.90
2023-05-03T07:34:29.690Z,24.10
2023-05-03T07:37:00.364Z,25.11
2023-05-03T07:39:31.496Z,25.56
2023-05-03T07:42:00.971Z,26.44
2023-05-03T07:44:34.369Z,26.95
2023-05-03T07:47:06.174Z,27.96
2023-05-03T07:49:37.260Z,28.77
2023-05-03T07:52:08.950Z,29.05
2023-05-03T07:54:37.967Z,29.43
2023-05-03T07:57:08.217Z,29.33
2023-05-03T07:59:39.124Z,29.32
2023-05-03T08:02:08.727Z,29.51
2023-05-03T08:04:39.907Z,29.52
2023-05-03T08:07:10.307Z,29.55
2023-05-03T08:09:41.316Z,29.91
2023-05-03T08:12:13.617Z,29.59
2023-05-03T08:14:43.496Z,29.58
2023-05-03T08:17:15.389Z,29.79
2023-05-03T08:19:44.729Z,29.57
2023-05-03T08:22:14.628Z,29.57
2023-05-03T08:24:47.304Z,29.58
2023-05-03T08:27:16.477Z,29.95
2023-05-03T08:29:47.601Z,29.62
2023-05-03T08:32:21.239Z,30.06
2023-05-03T08:34:51.841Z,30.43
2023-05-03T08:37:23.579Z,30.43
2023-05-03T08:40:23.060Z,30.69
2023-05-03T08:43:44.393Z,30.63
2023-05-03T08:46:14.380Z,30.53
2023-05-03T08:48:45.321Z,31.01
2023-05-03T08:51:14.911Z,31.14
2023-05-03T08:53:46.361Z,30.80
2023-05-03T08:56:25.622Z,30.71
2023-05-03T08:58:56.002Z,31.32
2023-05-03T09:01:29.873Z,32.22
2023-05-03T09:04:20.223Z,32.77
2023-05-03T09:06:49.937Z,32.86
2023-05-03T09:09:33.586Z,32.83
2023-05-03T09:15:26.133Z,32.07
2023-05-03T09:18:31.220Z,31.77
2023-05-03T09:21:01.489Z,32.57
2023-05-03T09:23:32.152Z,33.37
2023-05-03T09:26:01.916Z,33.38
2023-05-03T09:28:41.151Z,32.88
2023-05-03T09:31:12.779Z,33.00
2023-05-03T09:33:43.025Z,33.31
2023-05-03T09:36:15.159Z,33.16
2023-05-03T09:38:45.387Z,32.72
2023-05-03T09:41:14.769Z,33.22
2023-05-03T09:43:55.537Z,33.79
2023-05-03T09:46:27.647Z,32.60
2023-05-03T09:48:58.704Z,31.15
2023-05-03T09:51:28.778Z,30.10
2023-05-03T09:53:57.645Z,29.43
2023-05-03T09:56:31.564Z,29.26
2023-05-03T09:59:01.785Z,28.42
2023-05-03T10:01:32.899Z,26.76
2023-05-03T10:04:03.246Z,25.37
2023-05-03T10:06:37.343Z,24.60
2023-05-03T10:09:09.166Z,24.64
2023-05-03T10:11:50.880Z,25.40
2023-05-03T10:14:20.986Z,26.22
2023-05-03T10:16:51.403Z,25.85
2023-05-03T10:19:27.324Z,25.55
2023-05-03T10:22:09.605Z,24.04
2023-05-03T10:25:01.072Z,22.98
2023-05-03T10:27:56.840Z,22.45
2023-05-03T10:30:35.061Z,22.05
2023-05-03T10:33:18.526Z,22.03
2023-05-03T10:35:54.713Z,21.43
2023-05-03T10:38:25.861Z,21.24
2023-05-03T10:41:15.079Z,21.87
2023-05-03T10:43:45.352Z,22.19
2023-05-03T10:46:44.371Z,21.69
2023-05-03T10:49:17.816Z,21.88
2023-05-03T10:51:49.132Z,22.26
2023-05-03T10:58:40.753Z,21.86
2023-05-03T11:01:14.491Z,22.14
2023-05-03T11:03:47.315Z,21.87
2023-05-03T11:06:36.963Z,21.11
2023-05-03T11:09:07.433Z,20.38
2023-05-03T11:11:40.585Z,20.72
2023-05-03T11:14:10.750Z,21.22
2023-05-03T11:16:48.366Z,21.53
2023-05-03T11:19:21.321Z,21.74
2023-05-03T11:21:57.386Z,21.89
2023-05-03T11:24:27.647Z,21.82
2023-05-03T11:27:00.555Z,21.68
2023-05-03T11:29:42.154Z,22.09
2023-05-03T11:32:22.249Z,21.93
2023-05-03T11:34:52.340Z,22.06
2023-05-03T11:37:21.705Z,21.92
2023-05-03T11:39:52.205Z,21.72
2023-05-03T11:42:21.637Z,21.96
2023-05-03T11:44:54.727Z,22.29
2023-05-03T11:47:25.018Z,22.63
2023-05-03T11:49:54.686Z,22.68
2023-05-03T11:52:25.453Z,22.62
2023-05-03T11:54:55.027Z,22.76
2023-05-03T11:57:25.796Z,22.95
2023-05-03T11:59:56.203Z,23.09
2023-05-03T12:02:28.155Z,22.85
2023-05-03T12:04:59.583Z,22.48
2023-05-03T12:07:33.057Z,22.45
2023-05-03T12:10:22.996Z,22.45
2023-05-03T12:13:02.715Z,22.47
2023-05-03T12:15:43.985Z,22.45
2023-05-03T12:18:20.612Z,22.23
2023-05-03T12:21:29.976Z,22.11
2023-05-03T12:23:46.251Z,21.68
2023-05-03T12:26:19.055Z,21.62
2023-05-03T12:28:50.885Z,21.44
2023-05-03T12:31:22.907Z,21.61
2023-05-03T12:36:43.920Z,22.25
2023-05-03T12:39:16.331Z,22.38
2023-05-03T12:44:23.303Z,22.66
2023-05-03T12:46:57.409Z,22.31
2023-05-03T12:49:31.708Z,21.80
2023-05-03T12:52:35.378Z,21.26
2023-05-03T12:55:03.009Z,20.83
2023-05-03T12:57:37.331Z,20.65
2023-05-03T13:00:14.890Z,20.95
2023-05-03T13:05:34.320Z,20.50
2023-05-03T13:08:10.406Z,20.02
2023-05-03T13:10:42.592Z,19.89
2023-05-03T13:13:12.111Z,19.95
2023-05-03T13:15:43.895Z,20.13
2023-05-03T13:18:14.734Z,20.59
2023-05-03T13:20:46.217Z,21.06
2023-05-03T13:23:17.882Z,21.14
2023-05-03T13:25:47.693Z,21.39
2023-05-03T13:28:20.883Z,21.60
2023-05-03T13:30:58.023Z,21.16
2023-05-03T13:33:29.933Z,20.47
2023-05-03T13:36:02.576Z,20.23
2023-05-03T13:38:35.086Z,20.11
2023-05-03T13:41:09.634Z,20.34
2023-05-03T13:43:38.755Z,20.73
2023-05-03T13:46:10.959Z,21.23
2023-05-03T13:48:42.814Z,21.68
2023-05-03T13:51:13.852Z,21.77
2023-05-03T13:53:44.215Z,22.00
2023-05-03T13:56:41.613Z,22.22
2023-05-03T13:59:13.824Z,22.34
2023-05-03T14:01:44.622Z,22.28
2023-05-03T14:04:14.055Z,22.14
2023-05-03T14:06:44.244Z,21.90
2023-05-03T14:09:14.999Z,21.72
2023-05-03T14:11:47.018Z,21.54
2023-05-03T14:14:17.163Z,21.61
2023-05-03T14:16:48.139Z,21.55
2023-05-03T14:19:19.307Z,21.13
2023-05-03T14:21:50.323Z,20.75
2023-05-03T14:24:19.440Z,20.61
2023-05-03T14:26:49.763Z,20.50
2023-05-03T14:29:19.583Z,20.54
2023-05-03T14:31:51.767Z,20.74
2023-05-03T14:34:22.713Z,21.13
2023-05-03T14:36:53.002Z,21.48
2023-05-03T14:39:22.856Z,21.48
2023-05-03T14:41:51.748Z,21.35
2023-05-03T14:44:21.561Z,21.37
2023-05-03T14:46:54.297Z,21.52
2023-05-03T14:49:23.403Z,21.69
2023-05-03T14:51:52.683Z,21.89
2023-05-03T14:54:27.159Z,21.94
2023-05-03T14:56:56.963Z,21.95
2023-05-03T14:59:29.348Z,21.98
2023-05-03T15:01:59.053Z,22.04
2023-05-03T15:04:29.622Z,21.52
2023-05-03T15:07:03.346Z,20.63
2023-05-03T15:09:33.924Z,20.25
2023-05-03T15:12:07.134Z,20.00
2023-05-03T15:14:37.591Z,19.68
2023-05-03T15:17:08.090Z,19.30
2023-05-03T15:19:37.985Z,18.82
2023-05-03T15:22:06.946Z,18.55
2023-05-03T15:24:36.782Z,18.45
2023-05-03T15:27:08.457Z,18.41
2023-05-03T15:29:40.026Z,18.64
2023-05-03T15:32:09.609Z,18.84
2023-05-03T15:34:41.497Z,18.82
2023-05-03T15:37:12.676Z,18.60
2023-05-03T15:39:43.375Z,18.43
2023-05-03T15:42:21.305Z,18.34
2023-05-03T15:44:56.347Z,18.36
2023-05-03T15:47:29.805Z,18.47
2023-05-03T15:50:10.153Z,18.56
2023-05-03T15:52:43.115Z,18.57
2023-05-03T15:55:14.963Z,18.46
2023-05-03T15:57:47.068Z,18.27
2023-05-03T16:00:17.686Z,18.10
2023-05-03T16:02:51.356Z,18.20
2023-05-03T16:05:25.943Z,18.34
2023-05-03T16:07:56.447Z,18.41
2023-05-03T16:10:26.249Z,18.20
2023-05-03T16:12:55.774Z,17.86
2023-05-03T16:15:25.874Z,17.57
2023-05-03T16:17:58.587Z,17.30
2023-05-03T16:20:30.236Z,16.99
2023-05-03T16:23:00.347Z,16.57
2023-05-03T16:25:35.004Z,16.40
2023-05-03T16:28:06.452Z,16.37
2023-05-03T16:30:35.463Z,16.46
2023-05-03T16:33:05.373Z,16.51
2023-05-03T16:35:35.685Z,16.36
2023-05-03T16:38:06.887Z,16.11
2023-05-03T16:41:02.671Z,15.91
2023-05-03T16:43:35.715Z,15.56
2023-05-03T16:46:04.916Z,15.28
2023-05-03T16:48:35.945Z,15.11
2023-05-03T16:51:06.866Z,14.95
2023-05-03T16:53:43.541Z,14.83
2023-05-03T16:56:40.564Z,14.74
2023-05-03T16:59:11.454Z,14.66
2023-05-03T17:01:42.798Z,14.60
2023-05-03T17:04:11.844Z,14.50
2023-05-03T17:06:41.407Z,14.38
2023-05-03T17:09:31.904Z,14.23
2023-05-03T17:12:08.151Z,14.12
2023-05-03T17:14:39.770Z,14.03
2023-05-03T17:17:12.815Z,13.91
2023-05-03T17:19:46.937Z,13.81
2023-05-03T17:22:16.193Z,13.70
2023-05-03T17:24:46.653Z,13.59
2023-05-03T17:27:17.045Z,13.48
2023-05-03T17:29:47.088Z,13.40
2023-05-03T17:32:16.250Z,13.30
2023-05-03T17:34:50.337Z,13.20
2023-05-03T17:37:23.591Z,13.12
2023-05-03T17:39:54.112Z,13.05
2023-05-03T17:42:24.582Z,12.96
2023-05-03T17:44:55.431Z,12.87
2023-05-03T17:47:28.768Z,12.79
2023-05-03T17:50:02.918Z,12.73
2023-05-03T17:52:34.675Z,12.66
2023-05-03T17:55:05.427Z,12.60
2023-05-03T17:57:41.263Z,12.53
2023-05-03T18:00:16.818Z,12.45
2023-05-03T18:02:47.123Z,12.38
2023-05-03T18:05:28.558Z,12.31
2023-05-03T18:08:33.431Z,12.23
2023-05-03T18:11:10.153Z,12.10
2023-05-03T18:13:43.194Z,11.99
2023-05-03T18:16:17.569Z,11.85
2023-05-03T18:18:49.779Z,11.68
2023-05-03T18:21:29.923Z,11.45
2023-05-03T18:24:01.461Z,11.25
2023-05-03T18:26:33.580Z,11.12
2023-05-03T18:29:06.145Z,11.04
2023-05-03T18:31:37.092Z,10.99
2023-05-03T18:34:14.375Z,10.96
2023-05-03T18:36:45.837Z,10.91
2023-05-03T18:39:16.170Z,10.86
2023-05-03T18:41:45.783Z,10.83
2023-05-03T18:44:15.416Z,10.77
2023-05-03T18:46:47.271Z,10.71
2023-05-03T18:49:17.344Z,10.63
2023-05-03T18:51:48.800Z,10.54
2023-05-03T18:54:23.279Z,10.49
2023-05-03T18:56:53.862Z,10.42
2023-05-03T18:59:24.270Z,10.36
2023-05-03T19:02:01.421Z,10.32
2023-05-03T19:04:32.903Z,10.29
2023-05-03T19:07:06.324Z,10.26
2023-05-03T19:09:41.310Z,10.21
2023-05-03T19:12:14.942Z,10.16
2023-05-03T19:14:48.969Z,10.07
2023-05-03T19:17:21.774Z,9.97
2023-05-03T19:19:55.775Z,9.86
2023-05-03T19:22:29.107Z,9.80
2023-05-03T19:25:00.551Z,9.77
2023-05-03T19:28:21.562Z,9.74
2023-05-03T20:12:52.177Z,8.98
2023-05-03T20:15:22.448Z,8.90
2023-05-03T20:17:53.997Z,8.82
2023-05-03T20:20:26.609Z,8.73
2023-05-03T20:22:56.783Z,8.65
2023-05-03T20:25:36.144Z,8.55
2023-05-03T20:28:08.002Z,8.44
2023-05-03T20:30:40.156Z,8.33
2023-05-03T20:33:14.997Z,8.27
2023-05-03T20:35:46.591Z,8.21
2023-05-03T20:38:15.650Z,8.14
2023-05-03T20:40:48.546Z,8.03
2023-05-03T20:43:19.186Z,7.94
2023-05-03T20:45:53.941Z,7.86
2023-05-03T20:48:27.418Z,7.79
2023-05-03T20:51:05.777Z,7.72
2023-05-03T20:53:36.363Z,7.64
2023-05-03T20:56:09.239Z,7.57
2023-05-03T20:58:39.205Z,7.51
2023-05-03T21:01:10.074Z,7.39
2023-05-03T21:03:38.877Z,7.26
2023-05-03T21:06:10.647Z,7.18
2023-05-03T21:08:40.433Z,7.12
2023-05-03T21:11:11.335Z,7.07
2023-05-03T21:13:40.976Z,7.00
2023-05-03T21:16:12.505Z,6.92
2023-05-03T21:18:43.299Z,6.81
2023-05-03T21:21:12.807Z,6.71
2023-05-03T21:23:41.818Z,6.63
2023-05-03T21:26:12.679Z,6.55
2023-05-03T21:28:45.067Z,6.48
2023-05-03T21:34:52.076Z,6.40
2023-05-03T21:37:24.024Z,6.38
2023-05-03T21:40:01.449Z,6.37
2023-05-03T21:42:50.076Z,6.36
2023-05-03T21:45:28.229Z,6.38
2023-05-03T21:47:57.811Z,6.41
2023-05-03T21:50:29.437Z,6.38
2023-05-03T21:52:58.926Z,6.33
2023-05-03T21:55:30.248Z,6.30
2023-05-03T21:57:59.646Z,6.31
2023-05-03T22:00:30.411Z,6.35
2023-05-03T22:03:00.460Z,6.39
2023-05-03T22:05:31.350Z,6.42
2023-05-03T22:08:01.759Z,6.46
2023-05-03T22:10:35.787Z,6.49
2023-05-03T22:13:07.671Z,6.51
2023-05-03T22:15:36.631Z,6.52
2023-05-03T22:18:10.277Z,6.52
2023-05-03T22:20:40.564Z,6.54
2023-05-03T22:23:11.191Z,6.59
2023-05-03T22:25:42.222Z,6.63
2023-05-03T22:28:13.289Z,6.66
2023-05-03T22:30:45.465Z,6.67
2023-05-03T22:33:15.791Z,6.66
2023-05-03T22:35:47.090Z,6.62
2023-05-03T22:38:18.113Z,6.60
2023-05-03T22:40:48.886Z,6.59
2023-05-03T22:43:20.559Z,6.62
2023-05-03T22:45:49.510Z,6.67
2023-05-03T22:48:22.944Z,6.70
2023-05-03T22:50:55.576Z,6.70
2023-05-03T22:53:25.940Z,6.67
2023-05-03T22:55:57.509Z,6.62
2023-05-03T22:58:32.685Z,6.57
2023-05-03T23:01:01.847Z,6.49
2023-05-03T23:03:35.712Z,6.43
2023-05-03T23:06:06.938Z,6.42
2023-05-03T23:08:36.253Z,6.41
2023-05-03T23:11:07.714Z,6.42
2023-05-03T23:13:37.386Z,6.46
2023-05-03T23:16:11.398Z,6.54
2023-05-03T23:18:42.151Z,6.63
2023-05-03T23:21:14.010Z,6.71
2023-05-03T23:23:44.982Z,6.82
2023-05-03T23:26:15.476Z,6.90
2023-05-03T23:28:45.858Z,6.95
2023-05-03T23:31:17.290Z,6.97
2023-05-03T23:33:48.247Z,6.94
2023-05-03T23:36:18.899Z,6.91
2023-05-03T23:38:55.539Z,6.87
2023-05-03T23:41:27.106Z,6.85
2023-05-03T23:44:01.174Z,6.82
2023-05-03T23:46:30.529Z,6.81
2023-05-03T23:49:02.680Z,6.80
2023-05-03T23:51:34.139Z,6.80
2023-05-03T23:54:04.103Z,6.76
2023-05-03T23:56:35.851Z,6.72
2023-05-03T23:59:06.250Z,6.72
